sensor_id;sensor_type;location;lat;lon;timestamp;P1;durP1;ratioP1;P2;durP2;ratioP2
52180;SDS011;38158;53.338;6.514;2023-06-24T00:02:08;14.98;;;9.05;;
52180;SDS011;38158;53.338;6.514;2023-06-24T00:04:34;13.55;;;9.68;;
52180;SDS011;38158;53.338;6.514;2023-06-24T00:07:00;15.90;;;10.07;;
52180;SDS011;38158;53.338;6.514;2023-06-24T00:09:26;13.03;;;9.10;;
52180;SDS011;38158;53.338;6.514;2023-06-24T00:11:58;12.13;;;9.48;;
52180;SDS011;38158;53.338;6.514;2023-06-24T00:14:24;13.27;;;8.55;;
52180;SDS011;38158;53.338;6.514;2023-06-24T00:16:52;12.98;;;9.65;;
52180;SDS011;38158;53.338;6.514;2023-06-24T00:19:19;13.30;;;9.10;;
52180;SDS011;38158;53.338;6.514;2023-06-24T00:21:45;12.32;;;8.48;;
52180;SDS011;38158;53.338;6.514;2023-06-24T00:24:18;12.18;;;8.75;;
52180;SDS011;38158;53.338;6.514;2023-06-24T00:26:48;14.25;;;8.98;;
52180;SDS011;38158;53.338;6.514;2023-06-24T00:29:13;14.27;;;9.68;;
52180;SDS011;38158;53.338;6.514;2023-06-24T00:31:40;13.88;;;10.23;;
52180;SDS011;38158;53.338;6.514;2023-06-24T00:34:06;13.65;;;9.23;;
52180;SDS011;38158;53.338;6.514;2023-06-24T00:36:32;12.07;;;9.13;;
52180;SDS011;38158;53.338;6.514;2023-06-24T00:38:58;13.73;;;8.52;;
52180;SDS011;38158;53.338;6.514;2023-06-24T00:41:30;12.55;;;9.23;;
52180;SDS011;38158;53.338;6.514;2023-06-24T00:43:57;13.57;;;9.25;;
52180;SDS011;38158;53.338;6.514;2023-06-24T00:46:26;13.93;;;9.60;;
52180;SDS011;38158;53.338;6.514;2023-06-24T00:48:54;12.95;;;9.25;;
52180;SDS011;38158;53.338;6.514;2023-06-24T00:51:21;12.57;;;8.52;;
52180;SDS011;38158;53.338;6.514;2023-06-24T00:53:52;13.00;;;8.60;;
52180;SDS011;38158;53.338;6.514;2023-06-24T00:56:19;12.43;;;8.82;;
52180;SDS011;38158;53.338;6.514;2023-06-24T00:58:49;13.00;;;9.45;;
52180;SDS011;38158;53.338;6.514;2023-06-24T01:01:15;13.43;;;8.52;;
52180;SDS011;38158;53.338;6.514;2023-06-24T01:03:42;12.73;;;8.27;;
52180;SDS011;38158;53.338;6.514;2023-06-24T01:06:08;12.82;;;9.13;;
52180;SDS011;38158;53.338;6.514;2023-06-24T01:11:00;11.15;;;8.65;;
52180;SDS011;38158;53.338;6.514;2023-06-24T01:13:26;14.02;;;9.07;;
52180;SDS011;38158;53.338;6.514;2023-06-24T01:15:52;11.73;;;8.77;;
52180;SDS011;38158;53.338;6.514;2023-06-24T01:21:06;11.98;;;8.38;;
52180;SDS011;38158;53.338;6.514;2023-06-24T01:34:36;10.65;;;7.72;;
52180;SDS011;38158;53.338;6.514;2023-06-24T01:37:08;12.55;;;8.02;;
52180;SDS011;38158;53.338;6.514;2023-06-24T01:39:37;11.32;;;8.32;;
52180;SDS011;38158;53.338;6.514;2023-06-24T01:42:08;13.52;;;9.20;;
52180;SDS011;38158;53.338;6.514;2023-06-24T01:44:37;11.43;;;8.07;;
52180;SDS011;38158;53.338;6.514;2023-06-24T01:47:05;11.95;;;8.27;;
52180;SDS011;38158;53.338;6.514;2023-06-24T01:51:59;11.15;;;8.57;;
52180;SDS011;38158;53.338;6.514;2023-06-24T01:54:26;13.27;;;9.00;;
52180;SDS011;38158;53.338;6.514;2023-06-24T01:56:54;12.30;;;9.73;;
52180;SDS011;38158;53.338;6.514;2023-06-24T01:59:22;15.88;;;10.45;;
52180;SDS011;38158;53.338;6.514;2023-06-24T02:01:48;14.67;;;10.53;;
52180;SDS011;38158;53.338;6.514;2023-06-24T02:04:17;13.45;;;9.57;;
52180;SDS011;38158;53.338;6.514;2023-06-24T02:06:44;16.02;;;10.13;;
52180;SDS011;38158;53.338;6.514;2023-06-24T02:09:12;12.73;;;9.82;;
52180;SDS011;38158;53.338;6.514;2023-06-24T02:11:40;14.75;;;10.32;;
52180;SDS011;38158;53.338;6.514;2023-06-24T02:14:08;17.55;;;11.27;;
52180;SDS011;38158;53.338;6.514;2023-06-24T02:16:34;13.32;;;10.65;;
52180;SDS011;38158;53.338;6.514;2023-06-24T02:19:01;14.65;;;10.82;;
52180;SDS011;38158;53.338;6.514;2023-06-24T02:21:29;13.80;;;10.73;;
52180;SDS011;38158;53.338;6.514;2023-06-24T02:23:56;17.25;;;11.52;;
52180;SDS011;38158;53.338;6.514;2023-06-24T02:26:22;15.65;;;11.60;;
52180;SDS011;38158;53.338;6.514;2023-06-24T02:28:50;15.32;;;11.32;;
52180;SDS011;38158;53.338;6.514;2023-06-24T02:31:18;18.10;;;11.13;;
52180;SDS011;38158;53.338;6.514;2023-06-24T02:33:44;14.70;;;11.80;;
52180;SDS011;38158;53.338;6.514;2023-06-24T02:36:10;15.07;;;11.55;;
52180;SDS011;38158;53.338;6.514;2023-06-24T02:38:36;13.43;;;10.55;;
52180;SDS011;38158;53.338;6.514;2023-06-24T02:41:02;15.77;;;10.65;;
52180;SDS011;38158;53.338;6.514;2023-06-24T02:43:29;14.80;;;10.93;;
52180;SDS011;38158;53.338;6.514;2023-06-24T02:45:55;12.37;;;10.37;;
52180;SDS011;38158;53.338;6.514;2023-06-24T02:48:23;16.83;;;10.63;;
52180;SDS011;38158;53.338;6.514;2023-06-24T02:50:49;14.47;;;10.53;;
52180;SDS011;38158;53.338;6.514;2023-06-24T02:53:16;12.85;;;10.52;;
52180;SDS011;38158;53.338;6.514;2023-06-24T02:55:42;14.07;;;10.45;;
52180;SDS011;38158;53.338;6.514;2023-06-24T03:00:37;12.77;;;10.18;;
52180;SDS011;38158;53.338;6.514;2023-06-24T03:03:04;16.13;;;10.65;;
52180;SDS011;38158;53.338;6.514;2023-06-24T03:05:31;17.98;;;10.90;;
52180;SDS011;38158;53.338;6.514;2023-06-24T03:07:58;14.70;;;10.32;;
52180;SDS011;38158;53.338;6.514;2023-06-24T03:10:24;12.70;;;10.38;;
52180;SDS011;38158;53.338;6.514;2023-06-24T03:12:50;14.90;;;9.90;;
52180;SDS011;38158;53.338;6.514;2023-06-24T03:15:17;14.25;;;10.25;;
52180;SDS011;38158;53.338;6.514;2023-06-24T03:17:43;13.18;;;10.05;;
52180;SDS011;38158;53.338;6.514;2023-06-24T03:20:09;13.32;;;10.57;;
52180;SDS011;38158;53.338;6.514;2023-06-24T03:22:35;14.57;;;10.35;;
52180;SDS011;38158;53.338;6.514;2023-06-24T03:25:02;15.18;;;10.95;;
52180;SDS011;38158;53.338;6.514;2023-06-24T03:27:27;15.68;;;10.50;;
52180;SDS011;38158;53.338;6.514;2023-06-24T03:29:53;12.95;;;10.00;;
52180;SDS011;38158;53.338;6.514;2023-06-24T03:32:19;14.43;;;10.52;;
52180;SDS011;38158;53.338;6.514;2023-06-24T03:34:45;13.52;;;10.50;;
52180;SDS011;38158;53.338;6.514;2023-06-24T03:37:11;14.90;;;10.52;;
52180;SDS011;38158;53.338;6.514;2023-06-24T03:39:36;15.13;;;11.32;;
52180;SDS011;38158;53.338;6.514;2023-06-24T03:42:02;13.07;;;10.48;;
52180;SDS011;38158;53.338;6.514;2023-06-24T03:44:28;14.00;;;10.05;;
52180;SDS011;38158;53.338;6.514;2023-06-24T03:46:54;16.13;;;10.68;;
52180;SDS011;38158;53.338;6.514;2023-06-24T03:49:20;16.27;;;11.63;;
52180;SDS011;38158;53.338;6.514;2023-06-24T03:51:45;15.77;;;10.88;;
52180;SDS011;38158;53.338;6.514;2023-06-24T03:54:11;14.32;;;10.82;;
52180;SDS011;38158;53.338;6.514;2023-06-24T03:56:37;17.42;;;12.20;;
52180;SDS011;38158;53.338;6.514;2023-06-24T03:59:02;15.35;;;11.93;;
52180;SDS011;38158;53.338;6.514;2023-06-24T04:01:28;16.17;;;11.07;;
52180;SDS011;38158;53.338;6.514;2023-06-24T04:03:57;16.63;;;11.68;;
52180;SDS011;38158;53.338;6.514;2023-06-24T04:06:23;16.57;;;11.70;;
52180;SDS011;38158;53.338;6.514;2023-06-24T04:08:49;16.95;;;12.35;;
52180;SDS011;38158;53.338;6.514;2023-06-24T04:11:17;15.80;;;12.13;;
52180;SDS011;38158;53.338;6.514;2023-06-24T04:13:43;15.50;;;11.15;;
52180;SDS011;38158;53.338;6.514;2023-06-24T04:16:10;17.95;;;12.27;;
52180;SDS011;38158;53.338;6.514;2023-06-24T04:18:35;20.23;;;12.10;;
52180;SDS011;38158;53.338;6.514;2023-06-24T04:21:04;17.55;;;12.18;;
52180;SDS011;38158;53.338;6.514;2023-06-24T04:25:57;15.25;;;11.40;;
52180;SDS011;38158;53.338;6.514;2023-06-24T04:28:23;14.85;;;10.95;;
52180;SDS011;38158;53.338;6.514;2023-06-24T04:30:49;18.80;;;11.02;;
52180;SDS011;38158;53.338;6.514;2023-06-24T04:33:14;15.57;;;10.77;;
52180;SDS011;38158;53.338;6.514;2023-06-24T04:35:40;16.80;;;12.20;;
52180;SDS011;38158;53.338;6.514;2023-06-24T04:38:06;13.80;;;10.60;;
52180;SDS011;38158;53.338;6.514;2023-06-24T04:40:32;17.52;;;11.27;;
52180;SDS011;38158;53.338;6.514;2023-06-24T04:42:57;15.38;;;10.35;;
52180;SDS011;38158;53.338;6.514;2023-06-24T04:45:23;16.52;;;10.45;;
52180;SDS011;38158;53.338;6.514;2023-06-24T04:47:49;14.85;;;10.75;;
52180;SDS011;38158;53.338;6.514;2023-06-24T04:50:15;14.63;;;10.40;;
52180;SDS011;38158;53.338;6.514;2023-06-24T04:52:40;13.93;;;10.30;;
52180;SDS011;38158;53.338;6.514;2023-06-24T04:55:06;13.80;;;10.25;;
52180;SDS011;38158;53.338;6.514;2023-06-24T04:57:32;13.77;;;9.52;;
52180;SDS011;38158;53.338;6.514;2023-06-24T04:59:59;14.13;;;8.82;;
52180;SDS011;38158;53.338;6.514;2023-06-24T05:02:25;16.52;;;9.13;;
52180;SDS011;38158;53.338;6.514;2023-06-24T05:04:51;11.75;;;8.82;;
52180;SDS011;38158;53.338;6.514;2023-06-24T05:07:17;14.68;;;8.50;;
52180;SDS011;38158;53.338;6.514;2023-06-24T05:09:46;12.13;;;8.23;;
52180;SDS011;38158;53.338;6.514;2023-06-24T05:12:12;11.48;;;8.65;;
52180;SDS011;38158;53.338;6.514;2023-06-24T05:14:38;12.05;;;8.93;;
52180;SDS011;38158;53.338;6.514;2023-06-24T05:17:04;11.38;;;8.85;;
52180;SDS011;38158;53.338;6.514;2023-06-24T05:19:30;11.43;;;8.60;;
52180;SDS011;38158;53.338;6.514;2023-06-24T05:21:56;14.50;;;8.68;;
52180;SDS011;38158;53.338;6.514;2023-06-24T05:24:22;10.77;;;8.10;;
52180;SDS011;38158;53.338;6.514;2023-06-24T05:26:48;11.85;;;8.45;;
52180;SDS011;38158;53.338;6.514;2023-06-24T05:29:15;14.40;;;7.32;;
52180;SDS011;38158;53.338;6.514;2023-06-24T05:31:42;11.77;;;8.73;;
52180;SDS011;38158;53.338;6.514;2023-06-24T05:34:07;10.23;;;8.45;;
52180;SDS011;38158;53.338;6.514;2023-06-24T05:36:33;14.25;;;8.45;;
52180;SDS011;38158;53.338;6.514;2023-06-24T05:38:59;11.55;;;8.45;;
52180;SDS011;38158;53.338;6.514;2023-06-24T05:41:25;10.95;;;8.43;;
52180;SDS011;38158;53.338;6.514;2023-06-24T05:44:00;14.07;;;8.90;;
52180;SDS011;38158;53.338;6.514;2023-06-24T05:46:31;12.43;;;8.30;;
52180;SDS011;38158;53.338;6.514;2023-06-24T05:48:57;15.13;;;9.02;;
52180;SDS011;38158;53.338;6.514;2023-06-24T05:51:22;18.25;;;13.82;;
52180;SDS011;38158;53.338;6.514;2023-06-24T05:53:48;13.93;;;9.95;;
52180;SDS011;38158;53.338;6.514;2023-06-24T05:56:14;18.23;;;9.75;;
52180;SDS011;38158;53.338;6.514;2023-06-24T05:58:40;13.15;;;9.05;;
52180;SDS011;38158;53.338;6.514;2023-06-24T06:01:11;10.90;;;7.72;;
52180;SDS011;38158;53.338;6.514;2023-06-24T06:03:37;13.85;;;8.95;;
52180;SDS011;38158;53.338;6.514;2023-06-24T06:06:02;11.00;;;8.48;;
52180;SDS011;38158;53.338;6.514;2023-06-24T06:08:29;10.25;;;7.80;;
52180;SDS011;38158;53.338;6.514;2023-06-24T06:10:55;15.88;;;8.85;;
52180;SDS011;38158;53.338;6.514;2023-06-24T06:13:21;13.40;;;8.65;;
52180;SDS011;38158;53.338;6.514;2023-06-24T06:15:47;12.60;;;8.93;;
52180;SDS011;38158;53.338;6.514;2023-06-24T06:18:13;11.88;;;8.77;;
52180;SDS011;38158;53.338;6.514;2023-06-24T06:20:39;12.23;;;8.48;;
52180;SDS011;38158;53.338;6.514;2023-06-24T06:23:05;16.40;;;10.45;;
52180;SDS011;38158;53.338;6.514;2023-06-24T06:25:31;12.30;;;8.43;;
52180;SDS011;38158;53.338;6.514;2023-06-24T06:27:57;10.73;;;8.65;;
52180;SDS011;38158;53.338;6.514;2023-06-24T06:30:23;11.43;;;8.38;;
52180;SDS011;38158;53.338;6.514;2023-06-24T06:32:49;15.88;;;9.25;;
52180;SDS011;38158;53.338;6.514;2023-06-24T06:35:14;12.13;;;8.40;;
52180;SDS011;38158;53.338;6.514;2023-06-24T06:37:40;14.02;;;9.15;;
52180;SDS011;38158;53.338;6.514;2023-06-24T06:40:06;13.40;;;9.32;;
52180;SDS011;38158;53.338;6.514;2023-06-24T06:42:32;13.10;;;8.40;;
52180;SDS011;38158;53.338;6.514;2023-06-24T06:44:58;13.05;;;8.55;;
52180;SDS011;38158;53.338;6.514;2023-06-24T06:47:24;12.18;;;9.48;;
52180;SDS011;38158;53.338;6.514;2023-06-24T06:49:49;12.00;;;9.48;;
52180;SDS011;38158;53.338;6.514;2023-06-24T06:52:15;15.95;;;9.65;;
52180;SDS011;38158;53.338;6.514;2023-06-24T06:54:41;13.32;;;8.70;;
52180;SDS011;38158;53.338;6.514;2023-06-24T06:57:06;11.88;;;8.75;;
52180;SDS011;38158;53.338;6.514;2023-06-24T06:59:32;13.20;;;8.82;;
52180;SDS011;38158;53.338;6.514;2023-06-24T07:01:58;11.30;;;8.98;;
52180;SDS011;38158;53.338;6.514;2023-06-24T07:04:24;11.65;;;8.75;;
52180;SDS011;38158;53.338;6.514;2023-06-24T07:06:50;14.10;;;8.55;;
52180;SDS011;38158;53.338;6.514;2023-06-24T07:09:16;11.20;;;8.38;;
52180;SDS011;38158;53.338;6.514;2023-06-24T07:11:42;10.97;;;8.23;;
52180;SDS011;38158;53.338;6.514;2023-06-24T07:14:08;11.43;;;8.30;;
52180;SDS011;38158;53.338;6.514;2023-06-24T07:16:34;11.38;;;7.93;;
52180;SDS011;38158;53.338;6.514;2023-06-24T07:19:01;12.40;;;8.95;;
52180;SDS011;38158;53.338;6.514;2023-06-24T07:21:26;11.68;;;7.53;;
52180;SDS011;38158;53.338;6.514;2023-06-24T07:23:52;11.82;;;8.23;;
52180;SDS011;38158;53.338;6.514;2023-06-24T07:26:18;10.93;;;7.75;;
52180;SDS011;38158;53.338;6.514;2023-06-24T07:28:43;10.75;;;7.47;;
52180;SDS011;38158;53.338;6.514;2023-06-24T07:31:09;9.23;;;7.57;;
52180;SDS011;38158;53.338;6.514;2023-06-24T07:33:35;12.45;;;8.38;;
52180;SDS011;38158;53.338;6.514;2023-06-24T07:36:01;10.60;;;7.68;;
52180;SDS011;38158;53.338;6.514;2023-06-24T07:38:28;12.93;;;8.38;;
52180;SDS011;38158;53.338;6.514;2023-06-24T07:40:55;11.25;;;8.75;;
52180;SDS011;38158;53.338;6.514;2023-06-24T07:43:21;9.47;;;7.13;;
52180;SDS011;38158;53.338;6.514;2023-06-24T07:45:46;11.52;;;7.65;;
52180;SDS011;38158;53.338;6.514;2023-06-24T07:48:12;13.38;;;7.13;;
52180;SDS011;38158;53.338;6.514;2023-06-24T07:50:38;10.00;;;7.10;;
52180;SDS011;38158;53.338;6.514;2023-06-24T07:53:04;9.88;;;6.97;;
52180;SDS011;38158;53.338;6.514;2023-06-24T07:55:30;12.20;;;7.53;;
52180;SDS011;38158;53.338;6.514;2023-06-24T07:57:56;13.20;;;7.30;;
52180;SDS011;38158;53.338;6.514;2023-06-24T08:02:49;9.75;;;7.13;;
52180;SDS011;38158;53.338;6.514;2023-06-24T08:05:15;10.73;;;7.80;;
52180;SDS011;38158;53.338;6.514;2023-06-24T08:07:43;11.45;;;7.35;;
52180;SDS011;38158;53.338;6.514;2023-06-24T08:10:09;11.93;;;7.68;;
52180;SDS011;38158;53.338;6.514;2023-06-24T08:12:35;9.32;;;6.95;;
52180;SDS011;38158;53.338;6.514;2023-06-24T08:15:01;13.97;;;7.33;;
52180;SDS011;38158;53.338;6.514;2023-06-24T08:17:27;10.30;;;7.18;;
52180;SDS011;38158;53.338;6.514;2023-06-24T08:19:52;9.30;;;5.82;;
52180;SDS011;38158;53.338;6.514;2023-06-24T08:22:18;10.07;;;7.15;;
52180;SDS011;38158;53.338;6.514;2023-06-24T08:24:44;11.68;;;6.85;;
52180;SDS011;38158;53.338;6.514;2023-06-24T08:27:09;10.70;;;6.73;;
52180;SDS011;38158;53.338;6.514;2023-06-24T08:29:35;11.87;;;7.67;;
52180;SDS011;38158;53.338;6.514;2023-06-24T08:32:03;9.70;;;6.85;;
52180;SDS011;38158;53.338;6.514;2023-06-24T08:34:29;11.27;;;6.78;;
52180;SDS011;38158;53.338;6.514;2023-06-24T08:36:55;10.85;;;6.80;;
52180;SDS011;38158;53.338;6.514;2023-06-24T08:39:21;10.33;;;7.13;;
52180;SDS011;38158;53.338;6.514;2023-06-24T08:41:46;10.57;;;6.55;;
52180;SDS011;38158;53.338;6.514;2023-06-24T08:44:12;8.50;;;5.97;;
52180;SDS011;38158;53.338;6.514;2023-06-24T08:46:38;10.63;;;6.22;;
52180;SDS011;38158;53.338;6.514;2023-06-24T08:51:52;9.93;;;6.07;;
52180;SDS011;38158;53.338;6.514;2023-06-24T08:54:23;13.48;;;7.05;;
52180;SDS011;38158;53.338;6.514;2023-06-24T08:56:50;10.18;;;6.03;;
52180;SDS011;38158;53.338;6.514;2023-06-24T08:59:16;10.23;;;6.00;;
52180;SDS011;38158;53.338;6.514;2023-06-24T09:01:45;11.10;;;6.85;;
52180;SDS011;38158;53.338;6.514;2023-06-24T09:04:12;12.07;;;7.10;;
52180;SDS011;38158;53.338;6.514;2023-06-24T09:06:37;11.47;;;7.23;;
52180;SDS011;38158;53.338;6.514;2023-06-24T09:09:03;10.30;;;7.30;;
52180;SDS011;38158;53.338;6.514;2023-06-24T09:11:30;15.35;;;7.25;;
52180;SDS011;38158;53.338;6.514;2023-06-24T09:14:00;9.93;;;6.65;;
52180;SDS011;38158;53.338;6.514;2023-06-24T09:16:26;8.90;;;6.75;;
52180;SDS011;38158;53.338;6.514;2023-06-24T09:18:53;10.45;;;7.18;;
52180;SDS011;38158;53.338;6.514;2023-06-24T09:21:26;10.43;;;7.37;;
52180;SDS011;38158;53.338;6.514;2023-06-24T09:23:55;8.73;;;6.20;;
52180;SDS011;38158;53.338;6.514;2023-06-24T09:26:26;10.73;;;7.00;;
52180;SDS011;38158;53.338;6.514;2023-06-24T09:28:52;14.48;;;7.88;;
52180;SDS011;38158;53.338;6.514;2023-06-24T09:33:45;9.13;;;6.40;;
52180;SDS011;38158;53.338;6.514;2023-06-24T09:36:12;10.85;;;6.13;;
52180;SDS011;38158;53.338;6.514;2023-06-24T09:38:44;12.00;;;7.10;;
52180;SDS011;38158;53.338;6.514;2023-06-24T09:41:10;11.25;;;6.72;;
52180;SDS011;38158;53.338;6.514;2023-06-24T09:43:37;10.88;;;6.13;;
52180;SDS011;38158;53.338;6.514;2023-06-24T09:46:07;9.77;;;6.20;;
52180;SDS011;38158;53.338;6.514;2023-06-24T09:48:33;11.40;;;6.33;;
52180;SDS011;38158;53.338;6.514;2023-06-24T09:51:00;7.80;;;5.70;;
52180;SDS011;38158;53.338;6.514;2023-06-24T09:53:30;8.93;;;5.90;;
52180;SDS011;38158;53.338;6.514;2023-06-24T09:56:01;8.15;;;5.90;;
52180;SDS011;38158;53.338;6.514;2023-06-24T09:58:31;8.18;;;5.68;;
52180;SDS011;38158;53.338;6.514;2023-06-24T10:01:02;12.57;;;5.95;;
52180;SDS011;38158;53.338;6.514;2023-06-24T10:03:30;9.70;;;5.72;;
52180;SDS011;38158;53.338;6.514;2023-06-24T10:05:59;9.88;;;6.15;;
52180;SDS011;38158;53.338;6.514;2023-06-24T10:08:27;9.23;;;5.97;;
52180;SDS011;38158;53.338;6.514;2023-06-24T10:10:53;8.90;;;5.57;;
52180;SDS011;38158;53.338;6.514;2023-06-24T10:13:19;9.17;;;6.07;;
52180;SDS011;38158;53.338;6.514;2023-06-24T10:15:45;9.63;;;6.20;;
52180;SDS011;38158;53.338;6.514;2023-06-24T10:21:10;9.70;;;6.10;;
52180;SDS011;38158;53.338;6.514;2023-06-24T10:23:50;10.45;;;5.28;;
52180;SDS011;38158;53.338;6.514;2023-06-24T10:26:27;10.27;;;5.20;;
52180;SDS011;38158;53.338;6.514;2023-06-24T10:36:54;9.73;;;5.18;;
52180;SDS011;38158;53.338;6.514;2023-06-24T10:47:38;7.25;;;4.88;;
52180;SDS011;38158;53.338;6.514;2023-06-24T10:50:10;8.80;;;5.25;;
52180;SDS011;38158;53.338;6.514;2023-06-24T10:52:38;7.38;;;4.15;;
52180;SDS011;38158;53.338;6.514;2023-06-24T10:55:05;8.93;;;4.75;;
52180;SDS011;38158;53.338;6.514;2023-06-24T10:57:32;7.82;;;5.50;;
52180;SDS011;38158;53.338;6.514;2023-06-24T10:59:58;7.13;;;4.93;;
52180;SDS011;38158;53.338;6.514;2023-06-24T11:02:25;10.40;;;5.43;;
52180;SDS011;38158;53.338;6.514;2023-06-24T11:04:58;8.63;;;5.10;;
52180;SDS011;38158;53.338;6.514;2023-06-24T11:07:26;7.82;;;4.85;;
52180;SDS011;38158;53.338;6.514;2023-06-24T11:10:17;8.45;;;4.63;;
52180;SDS011;38158;53.338;6.514;2023-06-24T11:12:43;7.90;;;4.10;;
52180;SDS011;38158;53.338;6.514;2023-06-24T11:15:12;8.87;;;4.37;;
52180;SDS011;38158;53.338;6.514;2023-06-24T11:17:39;5.97;;;3.38;;
52180;SDS011;38158;53.338;6.514;2023-06-24T11:20:09;7.53;;;3.40;;
52180;SDS011;38158;53.338;6.514;2023-06-24T11:22:36;6.88;;;4.03;;
52180;SDS011;38158;53.338;6.514;2023-06-24T11:25:02;6.50;;;4.03;;
52180;SDS011;38158;53.338;6.514;2023-06-24T11:27:29;5.50;;;2.92;;
52180;SDS011;38158;53.338;6.514;2023-06-24T11:32:39;5.25;;;2.78;;
52180;SDS011;38158;53.338;6.514;2023-06-24T11:35:07;6.45;;;3.30;;
52180;SDS011;38158;53.338;6.514;2023-06-24T11:37:34;5.53;;;3.10;;
52180;SDS011;38158;53.338;6.514;2023-06-24T11:40:01;6.80;;;3.45;;
52180;SDS011;38158;53.338;6.514;2023-06-24T11:42:31;6.63;;;3.03;;
52180;SDS011;38158;53.338;6.514;2023-06-24T11:45:04;7.07;;;4.07;;
52180;SDS011;38158;53.338;6.514;2023-06-24T11:47:32;6.22;;;3.47;;
52180;SDS011;38158;53.338;6.514;2023-06-24T11:50:03;6.20;;;3.95;;
52180;SDS011;38158;53.338;6.514;2023-06-24T11:52:49;5.70;;;3.10;;
52180;SDS011;38158;53.338;6.514;2023-06-24T11:55:18;5.40;;;3.25;;
52180;SDS011;38158;53.338;6.514;2023-06-24T12:03:28;11.25;;;5.97;;
52180;SDS011;38158;53.338;6.514;2023-06-24T12:05:47;12.13;;;5.93;;
52180;SDS011;38158;53.338;6.514;2023-06-24T12:08:13;9.97;;;5.37;;
52180;SDS011;38158;53.338;6.514;2023-06-24T12:10:40;9.10;;;5.57;;
52180;SDS011;38158;53.338;6.514;2023-06-24T12:13:06;11.02;;;5.63;;
52180;SDS011;38158;53.338;6.514;2023-06-24T12:15:33;10.00;;;5.63;;
52180;SDS011;38158;53.338;6.514;2023-06-24T12:18:00;8.98;;;5.38;;
52180;SDS011;38158;53.338;6.514;2023-06-24T12:20:27;10.73;;;6.13;;
52180;SDS011;38158;53.338;6.514;2023-06-24T12:22:53;11.95;;;6.03;;
52180;SDS011;38158;53.338;6.514;2023-06-24T12:25:20;9.50;;;5.28;;
52180;SDS011;38158;53.338;6.514;2023-06-24T12:27:46;10.17;;;5.80;;
52180;SDS011;38158;53.338;6.514;2023-06-24T12:30:12;9.43;;;5.20;;
52180;SDS011;38158;53.338;6.514;2023-06-24T12:32:38;9.63;;;5.47;;
52180;SDS011;38158;53.338;6.514;2023-06-24T12:35:05;6.65;;;4.57;;
52180;SDS011;38158;53.338;6.514;2023-06-24T12:37:33;10.15;;;5.55;;
52180;SDS011;38158;53.338;6.514;2023-06-24T12:39:59;10.23;;;4.95;;
52180;SDS011;38158;53.338;6.514;2023-06-24T12:42:25;7.70;;;4.68;;
52180;SDS011;38158;53.338;6.514;2023-06-24T12:44:52;6.38;;;4.22;;
52180;SDS011;38158;53.338;6.514;2023-06-24T12:47:18;8.38;;;3.80;;
52180;SDS011;38158;53.338;6.514;2023-06-24T12:49:44;7.83;;;3.47;;
52180;SDS011;38158;53.338;6.514;2023-06-24T12:52:09;8.90;;;3.87;;
52180;SDS011;38158;53.338;6.514;2023-06-24T12:54:35;8.63;;;4.03;;
52180;SDS011;38158;53.338;6.514;2023-06-24T12:57:01;8.63;;;3.90;;
52180;SDS011;38158;53.338;6.514;2023-06-24T12:59:27;8.18;;;3.90;;
52180;SDS011;38158;53.338;6.514;2023-06-24T13:01:53;7.00;;;3.97;;
52180;SDS011;38158;53.338;6.514;2023-06-24T13:04:18;10.03;;;4.57;;
52180;SDS011;38158;53.338;6.514;2023-06-24T13:06:46;8.07;;;4.20;;
52180;SDS011;38158;53.338;6.514;2023-06-24T13:09:13;6.10;;;3.67;;
52180;SDS011;38158;53.338;6.514;2023-06-24T13:11:38;8.83;;;4.40;;
52180;SDS011;38158;53.338;6.514;2023-06-24T13:14:05;8.70;;;4.20;;
52180;SDS011;38158;53.338;6.514;2023-06-24T13:16:31;7.63;;;3.70;;
52180;SDS011;38158;53.338;6.514;2023-06-24T13:18:57;8.43;;;4.45;;
52180;SDS011;38158;53.338;6.514;2023-06-24T13:21:23;10.50;;;3.37;;
52180;SDS011;38158;53.338;6.514;2023-06-24T13:23:49;9.20;;;3.83;;
52180;SDS011;38158;53.338;6.514;2023-06-24T13:26:15;6.77;;;3.47;;
52180;SDS011;38158;53.338;6.514;2023-06-24T13:28:41;5.37;;;3.03;;
52180;SDS011;38158;53.338;6.514;2023-06-24T13:31:07;7.30;;;3.45;;
52180;SDS011;38158;53.338;6.514;2023-06-24T13:33:33;4.33;;;2.80;;
52180;SDS011;38158;53.338;6.514;2023-06-24T13:35:58;5.63;;;2.63;;
52180;SDS011;38158;53.338;6.514;2023-06-24T13:38:24;5.80;;;2.87;;
52180;SDS011;38158;53.338;6.514;2023-06-24T13:40:50;6.27;;;3.00;;
52180;SDS011;38158;53.338;6.514;2023-06-24T13:43:15;7.83;;;3.10;;
52180;SDS011;38158;53.338;6.514;2023-06-24T13:45:41;6.07;;;3.33;;
52180;SDS011;38158;53.338;6.514;2023-06-24T13:48:07;5.47;;;2.83;;
52180;SDS011;38158;53.338;6.514;2023-06-24T13:50:32;5.03;;;2.87;;
52180;SDS011;38158;53.338;6.514;2023-06-24T13:52:59;6.25;;;3.08;;
52180;SDS011;38158;53.338;6.514;2023-06-24T13:55:24;8.03;;;2.90;;
52180;SDS011;38158;53.338;6.514;2023-06-24T13:57:50;4.83;;;3.07;;
52180;SDS011;38158;53.338;6.514;2023-06-24T14:00:16;6.17;;;3.13;;
52180;SDS011;38158;53.338;6.514;2023-06-24T14:02:42;6.43;;;3.08;;
52180;SDS011;38158;53.338;6.514;2023-06-24T14:05:08;4.67;;;2.97;;
52180;SDS011;38158;53.338;6.514;2023-06-24T14:07:35;6.90;;;3.00;;
52180;SDS011;38158;53.338;6.514;2023-06-24T14:10:01;7.75;;;3.50;;
52180;SDS011;38158;53.338;6.514;2023-06-24T14:12:26;6.43;;;3.17;;
52180;SDS011;38158;53.338;6.514;2023-06-24T14:14:52;7.37;;;3.40;;
52180;SDS011;38158;53.338;6.514;2023-06-24T14:17:18;6.77;;;3.40;;
52180;SDS011;38158;53.338;6.514;2023-06-24T14:19:47;7.28;;;3.38;;
52180;SDS011;38158;53.338;6.514;2023-06-24T14:22:12;7.37;;;3.53;;
52180;SDS011;38158;53.338;6.514;2023-06-24T14:24:38;4.97;;;3.00;;
52180;SDS011;38158;53.338;6.514;2023-06-24T14:27:07;6.17;;;3.20;;
52180;SDS011;38158;53.338;6.514;2023-06-24T14:29:33;5.03;;;2.92;;
52180;SDS011;38158;53.338;6.514;2023-06-24T14:31:58;8.20;;;3.00;;
52180;SDS011;38158;53.338;6.514;2023-06-24T14:34:24;8.00;;;3.27;;
52180;SDS011;38158;53.338;6.514;2023-06-24T14:36:50;6.10;;;3.67;;
52180;SDS011;38158;53.338;6.514;2023-06-24T14:39:15;8.87;;;3.43;;
52180;SDS011;38158;53.338;6.514;2023-06-24T14:41:44;5.78;;;2.90;;
52180;SDS011;38158;53.338;6.514;2023-06-24T14:44:10;6.13;;;3.00;;
52180;SDS011;38158;53.338;6.514;2023-06-24T14:46:35;5.90;;;3.13;;
52180;SDS011;38158;53.338;6.514;2023-06-24T14:51:28;5.28;;;3.08;;
52180;SDS011;38158;53.338;6.514;2023-06-24T14:53:54;6.03;;;3.27;;
52180;SDS011;38158;53.338;6.514;2023-06-24T14:56:19;5.67;;;3.50;;
52180;SDS011;38158;53.338;6.514;2023-06-24T14:58:45;6.13;;;3.60;;
52180;SDS011;38158;53.338;6.514;2023-06-24T15:01:11;8.27;;;3.93;;
52180;SDS011;38158;53.338;6.514;2023-06-24T15:03:36;8.10;;;3.07;;
52180;SDS011;38158;53.338;6.514;2023-06-24T15:06:02;7.90;;;4.00;;
52180;SDS011;38158;53.338;6.514;2023-06-24T15:08:28;7.07;;;3.50;;
52180;SDS011;38158;53.338;6.514;2023-06-24T15:10:54;5.23;;;2.90;;
52180;SDS011;38158;53.338;6.514;2023-06-24T15:13:19;7.63;;;3.20;;
52180;SDS011;38158;53.338;6.514;2023-06-24T15:15:45;6.27;;;2.60;;
52180;SDS011;38158;53.338;6.514;2023-06-24T15:18:11;4.67;;;2.77;;
52180;SDS011;38158;53.338;6.514;2023-06-24T15:20:36;5.80;;;3.60;;
52180;SDS011;38158;53.338;6.514;2023-06-24T15:23:02;7.13;;;3.63;;
52180;SDS011;38158;53.338;6.514;2023-06-24T15:25:28;7.03;;;4.20;;
52180;SDS011;38158;53.338;6.514;2023-06-24T15:27:54;7.00;;;3.83;;
52180;SDS011;38158;53.338;6.514;2023-06-24T15:30:20;6.53;;;3.90;;
52180;SDS011;38158;53.338;6.514;2023-06-24T15:32:45;7.43;;;3.67;;
52180;SDS011;38158;53.338;6.514;2023-06-24T15:35:12;6.57;;;3.72;;